Terminal Aerodrome Forecast
Issued by NWS

Current Version | Previous Version | Text Only | Print | Product List | Glossary Off
Versions: 1 2 3 4 5 6 7 8 9 10 11 12 13 14 15 16 17 18 19 20

000
FTUS41 KILN 211500 AAA
TAFLCK
TAF AMD
KLCK 211506Z 2115/2212 22006KT P6SM -SHRA SCT050 OVC100
      TEMPO 2115/2119 3SM -TSRA BR BKN040CB
     FM212000 23007KT P6SM SCT050 BKN100
     FM220000 23005KT P6SM SCT050 BKN150
     FM220900 23005KT P6SM VCTS OVC040CB=

USA.gov is the U.S. government's official web portal to all federal, state and local government web resources and services.